sensor_id;sensor_type;location;lat;lon;timestamp;pressure;altitude;pressure_sealevel;temperature;humidity
68506;BME280;55509;50.680;17.942;2022-09-01T00:00:47;100133.98;;;14.12;70.44
68506;BME280;55509;50.680;17.942;2022-09-01T00:03:54;100132.42;;;14.11;70.54
68506;BME280;55509;50.680;17.942;2022-09-01T00:06:56;100134.84;;;14.08;70.55
68506;BME280;55509;50.680;17.942;2022-09-01T00:10:02;100131.13;;;14.03;70.90
68506;BME280;55509;50.680;17.942;2022-09-01T00:13:07;100136.00;;;14.00;71.01
68506;BME280;55509;50.680;17.942;2022-09-01T00:16:14;100130.38;;;13.99;71.24
68506;BME280;55509;50.680;17.942;2022-09-01T00:19:26;100131.80;;;13.99;71.17
68506;BME280;55509;50.680;17.942;2022-09-01T00:22:30;100131.23;;;14.00;71.35
68506;BME280;55509;50.680;17.942;2022-09-01T00:25:37;100130.29;;;14.02;71.24
68506;BME280;55509;50.680;17.942;2022-09-01T00:28:40;100132.75;;;14.02;71.23
68506;BME280;55509;50.680;17.942;2022-09-01T00:31:43;100131.10;;;13.98;71.09
68506;BME280;55509;50.680;17.942;2022-09-01T00:34:44;100132.66;;;13.94;71.46
68506;BME280;55509;50.680;17.942;2022-09-01T00:37:49;100130.20;;;13.89;71.73
68506;BME280;55509;50.680;17.942;2022-09-01T00:40:54;100128.56;;;13.85;71.71
68506;BME280;55509;50.680;17.942;2022-09-01T00:43:59;100123.80;;;13.85;71.73
68506;BME280;55509;50.680;17.942;2022-09-01T00:47:01;100130.02;;;13.84;71.74
68506;BME280;55509;50.680;17.942;2022-09-01T00:50:07;100125.23;;;13.79;71.86
68506;BME280;55509;50.680;17.942;2022-09-01T00:53:09;100125.92;;;13.74;72.01
68506;BME280;55509;50.680;17.942;2022-09-01T00:56:15;100122.58;;;13.69;72.09
68506;BME280;55509;50.680;17.942;2022-09-01T00:59:18;100122.45;;;13.62;72.24
68506;BME280;55509;50.680;17.942;2022-09-01T01:02:24;100120.92;;;13.54;72.42
68506;BME280;55509;50.680;17.942;2022-09-01T01:05:33;100120.85;;;13.51;72.34
68506;BME280;55509;50.680;17.942;2022-09-01T01:08:44;100120.88;;;13.50;72.62
68506;BME280;55509;50.680;17.942;2022-09-01T01:12:02;100120.02;;;13.50;72.57
68506;BME280;55509;50.680;17.942;2022-09-01T01:15:07;100117.06;;;13.48;72.73
68506;BME280;55509;50.680;17.942;2022-09-01T01:18:13;100118.14;;;13.48;72.86
68506;BME280;55509;50.680;17.942;2022-09-01T01:21:46;100115.25;;;13.44;72.93
68506;BME280;55509;50.680;17.942;2022-09-01T01:25:05;100117.79;;;13.36;72.87
68506;BME280;55509;50.680;17.942;2022-09-01T01:31:13;100115.72;;;13.29;73.34
68506;BME280;55509;50.680;17.942;2022-09-01T01:34:15;100118.92;;;13.29;73.29
68506;BME280;55509;50.680;17.942;2022-09-01T01:37:18;100119.20;;;13.25;73.54
68506;BME280;55509;50.680;17.942;2022-09-01T01:40:23;100122.67;;;13.16;73.74
68506;BME280;55509;50.680;17.942;2022-09-01T01:43:26;100119.54;;;13.09;74.03
68506;BME280;55509;50.680;17.942;2022-09-01T01:46:32;100115.36;;;13.01;74.11
68506;BME280;55509;50.680;17.942;2022-09-01T01:49:35;100117.00;;;12.99;74.34
68506;BME280;55509;50.680;17.942;2022-09-01T01:52:37;100115.61;;;12.99;74.49
68506;BME280;55509;50.680;17.942;2022-09-01T01:55:42;100113.34;;;13.04;74.73
68506;BME280;55509;50.680;17.942;2022-09-01T01:58:44;100109.48;;;13.09;74.70
68506;BME280;55509;50.680;17.942;2022-09-01T02:01:49;100109.48;;;13.09;74.51
68506;BME280;55509;50.680;17.942;2022-09-01T02:04:54;100108.50;;;13.07;74.68
68506;BME280;55509;50.680;17.942;2022-09-01T02:08:02;100110.33;;;13.04;74.68
68506;BME280;55509;50.680;17.942;2022-09-01T02:11:07;100110.18;;;13.09;74.76
68506;BME280;55509;50.680;17.942;2022-09-01T02:14:10;100111.08;;;13.14;74.66
68506;BME280;55509;50.680;17.942;2022-09-01T02:17:13;100114.65;;;13.19;74.68
68506;BME280;55509;50.680;17.942;2022-09-01T02:20:15;100115.61;;;13.21;74.59
68506;BME280;55509;50.680;17.942;2022-09-01T02:23:18;100111.13;;;13.23;74.78
68506;BME280;55509;50.680;17.942;2022-09-01T02:26:24;100112.17;;;13.24;74.51
68506;BME280;55509;50.680;17.942;2022-09-01T02:29:33;100110.33;;;13.21;74.90
68506;BME280;55509;50.680;17.942;2022-09-01T02:32:35;100112.21;;;13.23;74.85
68506;BME280;55509;50.680;17.942;2022-09-01T02:35:37;100106.09;;;13.27;74.84
68506;BME280;55509;50.680;17.942;2022-09-01T02:38:41;100109.52;;;13.30;74.77
68506;BME280;55509;50.680;17.942;2022-09-01T02:41:46;100108.20;;;13.32;75.05
68506;BME280;55509;50.680;17.942;2022-09-01T02:44:51;100108.67;;;13.34;75.06
68506;BME280;55509;50.680;17.942;2022-09-01T02:47:54;100109.16;;;13.35;75.05
68506;BME280;55509;50.680;17.942;2022-09-01T02:51:04;100106.30;;;13.36;74.89
68506;BME280;55509;50.680;17.942;2022-09-01T02:54:07;100113.08;;;13.40;74.87
68506;BME280;55509;50.680;17.942;2022-09-01T02:57:08;100107.90;;;13.42;74.62
68506;BME280;55509;50.680;17.942;2022-09-01T03:00:11;100111.77;;;13.42;74.68
68506;BME280;55509;50.680;17.942;2022-09-01T03:03:23;100109.41;;;13.44;74.70
68506;BME280;55509;50.680;17.942;2022-09-01T03:06:33;100108.78;;;13.42;74.69
68506;BME280;55509;50.680;17.942;2022-09-01T03:09:36;100102.98;;;13.41;74.82
68506;BME280;55509;50.680;17.942;2022-09-01T03:12:44;100099.10;;;13.40;75.01
68506;BME280;55509;50.680;17.942;2022-09-01T03:15:46;100102.92;;;13.42;74.87
68506;BME280;55509;50.680;17.942;2022-09-01T03:18:49;100106.17;;;13.46;74.80
68506;BME280;55509;50.680;17.942;2022-09-01T03:21:51;100107.13;;;13.50;74.67
68506;BME280;55509;50.680;17.942;2022-09-01T03:24:53;100113.36;;;13.54;74.76
68506;BME280;55509;50.680;17.942;2022-09-01T03:28:01;100116.80;;;13.56;74.66
68506;BME280;55509;50.680;17.942;2022-09-01T03:31:06;100118.83;;;13.54;74.73
68506;BME280;55509;50.680;17.942;2022-09-01T03:34:09;100120.25;;;13.48;74.54
68506;BME280;55509;50.680;17.942;2022-09-01T03:37:20;100118.48;;;13.48;74.83
68506;BME280;55509;50.680;17.942;2022-09-01T03:40:29;100113.56;;;13.53;75.05
68506;BME280;55509;50.680;17.942;2022-09-01T03:43:33;100115.52;;;13.58;74.97
68506;BME280;55509;50.680;17.942;2022-09-01T03:46:40;100112.45;;;13.60;74.87
68506;BME280;55509;50.680;17.942;2022-09-01T03:49:44;100116.30;;;13.61;74.98
68506;BME280;55509;50.680;17.942;2022-09-01T03:52:50;100114.11;;;13.63;75.04
68506;BME280;55509;50.680;17.942;2022-09-01T03:55:53;100111.00;;;13.66;75.07
68506;BME280;55509;50.680;17.942;2022-09-01T03:58:58;100111.48;;;13.67;74.99
68506;BME280;55509;50.680;17.942;2022-09-01T04:02:03;100111.12;;;13.68;74.65
68506;BME280;55509;50.680;17.942;2022-09-01T04:05:08;100113.92;;;13.68;74.59
68506;BME280;55509;50.680;17.942;2022-09-01T04:08:20;100116.75;;;13.69;74.58
68506;BME280;55509;50.680;17.942;2022-09-01T04:11:28;100116.89;;;13.70;74.71
68506;BME280;55509;50.680;17.942;2022-09-01T04:14:39;100120.20;;;13.71;74.64
68506;BME280;55509;50.680;17.942;2022-09-01T04:17:48;100127.00;;;13.74;74.73
68506;BME280;55509;50.680;17.942;2022-09-01T04:21:28;100121.49;;;13.75;74.75
68506;BME280;55509;50.680;17.942;2022-09-01T04:24:41;100122.45;;;13.78;74.71
68506;BME280;55509;50.680;17.942;2022-09-01T04:27:49;100121.73;;;13.88;74.89
68506;BME280;55509;50.680;17.942;2022-09-01T04:30:53;100129.21;;;13.97;74.64
68506;BME280;55509;50.680;17.942;2022-09-01T04:33:56;100126.89;;;14.03;74.22
68506;BME280;55509;50.680;17.942;2022-09-01T04:37:00;100127.77;;;14.08;74.30
68506;BME280;55509;50.680;17.942;2022-09-01T04:40:04;100128.26;;;14.14;74.32
68506;BME280;55509;50.680;17.942;2022-09-01T04:43:06;100127.64;;;14.21;73.95
68506;BME280;55509;50.680;17.942;2022-09-01T04:46:09;100123.48;;;14.28;74.02
68506;BME280;55509;50.680;17.942;2022-09-01T04:49:22;100128.45;;;14.39;73.72
68506;BME280;55509;50.680;17.942;2022-09-01T04:52:26;100127.14;;;14.50;73.25
68506;BME280;55509;50.680;17.942;2022-09-01T04:55:28;100124.86;;;14.64;72.99
68506;BME280;55509;50.680;17.942;2022-09-01T04:58:36;100125.48;;;14.76;72.77
68506;BME280;55509;50.680;17.942;2022-09-01T05:01:40;100128.12;;;14.86;72.39
68506;BME280;55509;50.680;17.942;2022-09-01T05:04:49;100127.27;;;14.98;72.19
68506;BME280;55509;50.680;17.942;2022-09-01T05:07:55;100125.25;;;15.05;71.78
68506;BME280;55509;50.680;17.942;2022-09-01T05:11:02;100129.36;;;15.08;71.40
68506;BME280;55509;50.680;17.942;2022-09-01T05:14:08;100130.94;;;15.08;71.03
68506;BME280;55509;50.680;17.942;2022-09-01T05:17:11;100129.41;;;15.11;71.30
68506;BME280;55509;50.680;17.942;2022-09-01T05:20:16;100128.70;;;15.16;71.03
68506;BME280;55509;50.680;17.942;2022-09-01T05:23:21;100131.63;;;15.22;70.73
68506;BME280;55509;50.680;17.942;2022-09-01T05:26:29;100132.05;;;15.30;70.85
68506;BME280;55509;50.680;17.942;2022-09-01T05:29:32;100131.52;;;15.39;70.39
68506;BME280;55509;50.680;17.942;2022-09-01T05:32:35;100127.03;;;15.44;70.18
68506;BME280;55509;50.680;17.942;2022-09-01T05:35:38;100123.64;;;15.54;69.93
68506;BME280;55509;50.680;17.942;2022-09-01T05:38:45;100127.35;;;15.62;69.81
68506;BME280;55509;50.680;17.942;2022-09-01T05:41:52;100126.88;;;15.69;69.27
68506;BME280;55509;50.680;17.942;2022-09-01T05:44:54;100128.61;;;15.75;69.06
68506;BME280;55509;50.680;17.942;2022-09-01T05:47:56;100132.20;;;15.86;68.86
68506;BME280;55509;50.680;17.942;2022-09-01T05:51:00;100130.23;;;15.95;68.36
68506;BME280;55509;50.680;17.942;2022-09-01T05:54:07;100129.27;;;16.06;68.22
68506;BME280;55509;50.680;17.942;2022-09-01T05:57:13;100129.79;;;16.22;67.95
68506;BME280;55509;50.680;17.942;2022-09-01T06:00:15;100125.95;;;16.48;67.63
68506;BME280;55509;50.680;17.942;2022-09-01T06:03:19;100127.71;;;16.76;66.98
68506;BME280;55509;50.680;17.942;2022-09-01T06:06:26;100123.86;;;17.01;65.47
68506;BME280;55509;50.680;17.942;2022-09-01T06:09:28;100126.13;;;17.14;64.96
68506;BME280;55509;50.680;17.942;2022-09-01T06:12:29;100129.81;;;17.33;64.76
68506;BME280;55509;50.680;17.942;2022-09-01T06:15:33;100131.15;;;17.64;64.20
68506;BME280;55509;50.680;17.942;2022-09-01T06:18:38;100133.89;;;18.04;62.99
68506;BME280;55509;50.680;17.942;2022-09-01T06:21:40;100133.22;;;18.31;61.88
68506;BME280;55509;50.680;17.942;2022-09-01T06:24:42;100134.66;;;18.55;60.66
68506;BME280;55509;50.680;17.942;2022-09-01T06:27:45;100142.95;;;18.76;59.97
68506;BME280;55509;50.680;17.942;2022-09-01T06:30:49;100144.34;;;18.87;59.38
68506;BME280;55509;50.680;17.942;2022-09-01T06:33:52;100138.54;;;19.05;59.57
68506;BME280;55509;50.680;17.942;2022-09-01T06:36:55;100147.98;;;19.34;58.86
68506;BME280;55509;50.680;17.942;2022-09-01T06:39:56;100153.83;;;19.59;57.38
68506;BME280;55509;50.680;17.942;2022-09-01T06:42:59;100153.11;;;19.59;56.59
68506;BME280;55509;50.680;17.942;2022-09-01T06:46:02;100158.95;;;19.63;56.66
68506;BME280;55509;50.680;17.942;2022-09-01T06:49:04;100157.73;;;20.02;55.86
68506;BME280;55509;50.680;17.942;2022-09-01T06:52:06;100158.14;;;20.43;55.31
68506;BME280;55509;50.680;17.942;2022-09-01T06:55:13;100158.09;;;20.73;53.50
68506;BME280;55509;50.680;17.942;2022-09-01T06:58:15;100158.17;;;21.75;52.10
68506;BME280;55509;50.680;17.942;2022-09-01T07:01:18;100157.48;;;21.93;51.40
68506;BME280;55509;50.680;17.942;2022-09-01T07:04:21;100160.49;;;22.15;50.44
68506;BME280;55509;50.680;17.942;2022-09-01T07:07:23;100158.17;;;22.89;49.06
68506;BME280;55509;50.680;17.942;2022-09-01T07:10:28;100159.27;;;24.08;46.94
68506;BME280;55509;50.680;17.942;2022-09-01T07:13:30;100153.99;;;25.10;43.40
68506;BME280;55509;50.680;17.942;2022-09-01T07:16:36;100153.56;;;26.08;40.32
68506;BME280;55509;50.680;17.942;2022-09-01T07:19:48;100157.14;;;27.18;38.53
68506;BME280;55509;50.680;17.942;2022-09-01T07:22:54;100156.96;;;27.88;38.24
68506;BME280;55509;50.680;17.942;2022-09-01T07:25:56;100154.96;;;28.72;36.40
68506;BME280;55509;50.680;17.942;2022-09-01T07:29:04;100147.86;;;29.63;34.73
68506;BME280;55509;50.680;17.942;2022-09-01T07:32:06;100146.05;;;30.62;33.35
68506;BME280;55509;50.680;17.942;2022-09-01T07:35:10;100145.92;;;31.60;32.62
68506;BME280;55509;50.680;17.942;2022-09-01T07:38:15;100151.55;;;31.97;28.51
68506;BME280;55509;50.680;17.942;2022-09-01T07:41:22;100151.45;;;31.75;27.72
68506;BME280;55509;50.680;17.942;2022-09-01T07:44:33;100153.18;;;31.69;27.68
68506;BME280;55509;50.680;17.942;2022-09-01T07:47:38;100155.13;;;32.04;28.07
68506;BME280;55509;50.680;17.942;2022-09-01T07:50:43;100152.98;;;32.29;27.71
68506;BME280;55509;50.680;17.942;2022-09-01T07:53:48;100152.47;;;32.51;26.50
68506;BME280;55509;50.680;17.942;2022-09-01T07:56:51;100153.70;;;33.01;26.76
68506;BME280;55509;50.680;17.942;2022-09-01T07:59:56;100155.16;;;33.67;25.46
68506;BME280;55509;50.680;17.942;2022-09-01T08:02:58;100152.64;;;33.65;24.68
68506;BME280;55509;50.680;17.942;2022-09-01T08:06:11;100148.83;;;34.34;25.50
68506;BME280;55509;50.680;17.942;2022-09-01T08:09:16;100146.57;;;35.49;24.56
68506;BME280;55509;50.680;17.942;2022-09-01T08:12:21;100151.96;;;36.56;23.36
68506;BME280;55509;50.680;17.942;2022-09-01T08:15:28;100153.19;;;37.20;21.80
68506;BME280;55509;50.680;17.942;2022-09-01T08:18:43;100147.33;;;37.72;21.00
68506;BME280;55509;50.680;17.942;2022-09-01T08:21:48;100142.17;;;38.17;20.69
68506;BME280;55509;50.680;17.942;2022-09-01T08:24:59;100150.37;;;38.57;20.17
68506;BME280;55509;50.680;17.942;2022-09-01T08:32:27;100153.81;;;38.95;18.53
68506;BME280;55509;50.680;17.942;2022-09-01T08:35:51;100154.92;;;38.69;18.68
68506;BME280;55509;50.680;17.942;2022-09-01T08:38:57;100155.63;;;38.15;18.02
68506;BME280;55509;50.680;17.942;2022-09-01T08:46:05;100155.40;;;35.81;20.36
68506;BME280;55509;50.680;17.942;2022-09-01T08:49:22;100155.66;;;36.01;19.72
68506;BME280;55509;50.680;17.942;2022-09-01T08:53:01;100152.40;;;36.07;19.95
68506;BME280;55509;50.680;17.942;2022-09-01T08:56:13;100147.90;;;37.79;18.21
68506;BME280;55509;50.680;17.942;2022-09-01T08:59:25;100148.33;;;39.06;17.41
68506;BME280;55509;50.680;17.942;2022-09-01T09:06:10;100145.62;;;41.17;15.61
68506;BME280;55509;50.680;17.942;2022-09-01T09:09:13;100142.58;;;41.91;14.78
68506;BME280;55509;50.680;17.942;2022-09-01T09:16:01;100144.05;;;37.25;16.95
68506;BME280;55509;50.680;17.942;2022-09-01T09:19:18;100148.56;;;34.34;19.55
68506;BME280;55509;50.680;17.942;2022-09-01T09:22:26;100149.41;;;32.56;21.26
68506;BME280;55509;50.680;17.942;2022-09-01T09:25:28;100145.89;;;30.63;23.23
68506;BME280;55509;50.680;17.942;2022-09-01T09:28:31;100152.27;;;28.96;25.05
68506;BME280;55509;50.680;17.942;2022-09-01T09:31:36;100146.54;;;29.50;24.74
68506;BME280;55509;50.680;17.942;2022-09-01T09:34:46;100134.80;;;32.60;22.51
68506;BME280;55509;50.680;17.942;2022-09-01T09:37:48;100135.77;;;33.27;21.98
68506;BME280;55509;50.680;17.942;2022-09-01T09:41:06;100138.42;;;32.05;23.00
68506;BME280;55509;50.680;17.942;2022-09-01T09:44:26;100140.58;;;30.47;24.25
68506;BME280;55509;50.680;17.942;2022-09-01T09:50:40;100148.63;;;27.27;27.94
68506;BME280;55509;50.680;17.942;2022-09-01T09:53:43;100151.15;;;26.35;29.66
68506;BME280;55509;50.680;17.942;2022-09-01T09:56:45;100149.05;;;25.68;30.26
68506;BME280;55509;50.680;17.942;2022-09-01T10:00:05;100151.12;;;25.21;30.95
68506;BME280;55509;50.680;17.942;2022-09-01T10:03:12;100148.55;;;25.08;31.87
68506;BME280;55509;50.680;17.942;2022-09-01T10:06:35;100145.89;;;27.63;29.34
68506;BME280;55509;50.680;17.942;2022-09-01T10:09:38;100132.15;;;30.64;25.13
68506;BME280;55509;50.680;17.942;2022-09-01T10:12:42;100128.59;;;33.19;22.11
68506;BME280;55509;50.680;17.942;2022-09-01T10:16:01;100120.80;;;35.47;19.39
68506;BME280;55509;50.680;17.942;2022-09-01T10:19:15;100121.60;;;36.87;16.98
68506;BME280;55509;50.680;17.942;2022-09-01T10:22:20;100116.48;;;38.45;16.59
68506;BME280;55509;50.680;17.942;2022-09-01T10:25:33;100116.17;;;38.28;15.90
68506;BME280;55509;50.680;17.942;2022-09-01T10:29:04;100117.52;;;37.20;16.25
68506;BME280;55509;50.680;17.942;2022-09-01T10:32:14;100120.90;;;35.23;17.55
68506;BME280;55509;50.680;17.942;2022-09-01T10:35:31;100116.75;;;34.15;18.52
68506;BME280;55509;50.680;17.942;2022-09-01T10:38:40;100111.23;;;34.37;18.80
68506;BME280;55509;50.680;17.942;2022-09-01T10:41:58;100107.26;;;36.21;17.88
68506;BME280;55509;50.680;17.942;2022-09-01T10:45:40;100112.17;;;35.33;17.64
68506;BME280;55509;50.680;17.942;2022-09-01T10:48:42;100118.84;;;32.31;19.27
68506;BME280;55509;50.680;17.942;2022-09-01T10:51:44;100121.49;;;30.40;21.03
68506;BME280;55509;50.680;17.942;2022-09-01T10:54:52;100124.14;;;30.51;21.34
68506;BME280;55509;50.680;17.942;2022-09-01T11:01:04;100110.42;;;34.92;18.12
68506;BME280;55509;50.680;17.942;2022-09-01T11:04:12;100114.13;;;34.55;17.94
68506;BME280;55509;50.680;17.942;2022-09-01T11:11:14;100108.26;;;35.27;17.77
68506;BME280;55509;50.680;17.942;2022-09-01T11:13:58;100102.69;;;37.13;16.26
68506;BME280;55509;50.680;17.942;2022-09-01T11:17:15;100100.96;;;38.48;14.97
68506;BME280;55509;50.680;17.942;2022-09-01T11:20:32;100100.98;;;38.31;15.14
68506;BME280;55509;50.680;17.942;2022-09-01T11:23:39;100099.64;;;38.64;15.01
68506;BME280;55509;50.680;17.942;2022-09-01T11:26:47;100102.58;;;39.46;14.37
68506;BME280;55509;50.680;17.942;2022-09-01T11:29:58;100102.30;;;40.12;14.04
68506;BME280;55509;50.680;17.942;2022-09-01T11:36:32;100103.58;;;39.25;13.67
68506;BME280;55509;50.680;17.942;2022-09-01T11:39:47;100103.29;;;40.07;13.26
68506;BME280;55509;50.680;17.942;2022-09-01T11:42:52;100103.89;;;40.85;12.51
68506;BME280;55509;50.680;17.942;2022-09-01T11:46:09;100099.52;;;41.32;12.18
68506;BME280;55509;50.680;17.942;2022-09-01T11:49:29;100093.41;;;41.67;11.31
68506;BME280;55509;50.680;17.942;2022-09-01T11:53:02;100091.73;;;41.54;11.42
68506;BME280;55509;50.680;17.942;2022-09-01T11:56:37;100096.40;;;40.39;12.16
68506;BME280;55509;50.680;17.942;2022-09-01T11:59:42;100089.13;;;37.72;13.11
68506;BME280;55509;50.680;17.942;2022-09-01T12:02:50;100085.17;;;38.47;13.46
68506;BME280;55509;50.680;17.942;2022-09-01T12:05:58;100079.54;;;39.25;12.17
68506;BME280;55509;50.680;17.942;2022-09-01T12:09:03;100083.38;;;39.54;12.04
68506;BME280;55509;50.680;17.942;2022-09-01T12:12:34;100077.91;;;39.47;12.10
68506;BME280;55509;50.680;17.942;2022-09-01T12:15:40;100077.46;;;39.83;11.95
68506;BME280;55509;50.680;17.942;2022-09-01T12:18:49;100069.88;;;39.58;11.89
68506;BME280;55509;50.680;17.942;2022-09-01T12:21:58;100073.58;;;39.36;11.77
68506;BME280;55509;50.680;17.942;2022-09-01T12:25:01;100074.25;;;39.45;11.87
68506;BME280;55509;50.680;17.942;2022-09-01T12:28:06;100070.56;;;39.12;12.19
68506;BME280;55509;50.680;17.942;2022-09-01T12:31:19;100074.76;;;39.44;12.20
68506;BME280;55509;50.680;17.942;2022-09-01T12:34:46;100069.66;;;39.90;11.92
68506;BME280;55509;50.680;17.942;2022-09-01T12:41:39;100067.09;;;37.96;12.79
68506;BME280;55509;50.680;17.942;2022-09-01T12:47:54;100063.33;;;38.46;12.72
68506;BME280;55509;50.680;17.942;2022-09-01T12:51:21;100057.27;;;38.42;12.52
68506;BME280;55509;50.680;17.942;2022-09-01T12:54:27;100059.89;;;38.54;12.55
68506;BME280;55509;50.680;17.942;2022-09-01T13:00:35;100057.69;;;37.66;13.40
68506;BME280;55509;50.680;17.942;2022-09-01T13:03:40;100054.09;;;37.90;12.90
68506;BME280;55509;50.680;17.942;2022-09-01T13:06:44;100055.08;;;38.05;12.79
68506;BME280;55509;50.680;17.942;2022-09-01T13:09:46;100054.81;;;38.10;13.00
68506;BME280;55509;50.680;17.942;2022-09-01T13:12:50;100058.20;;;37.91;12.53
68506;BME280;55509;50.680;17.942;2022-09-01T13:15:55;100051.59;;;37.60;12.94
68506;BME280;55509;50.680;17.942;2022-09-01T13:19:05;100048.21;;;37.69;13.08
68506;BME280;55509;50.680;17.942;2022-09-01T13:22:07;100053.36;;;37.96;13.26
68506;BME280;55509;50.680;17.942;2022-09-01T13:25:17;100051.98;;;38.05;13.00
68506;BME280;55509;50.680;17.942;2022-09-01T13:28:22;100053.13;;;37.49;13.21
68506;BME280;55509;50.680;17.942;2022-09-01T13:31:25;100055.68;;;37.04;13.19
68506;BME280;55509;50.680;17.942;2022-09-01T13:34:29;100057.46;;;36.57;13.29
68506;BME280;55509;50.680;17.942;2022-09-01T13:37:33;100059.64;;;36.40;13.39
68506;BME280;55509;50.680;17.942;2022-09-01T13:40:36;100056.72;;;36.50;13.92
68506;BME280;55509;50.680;17.942;2022-09-01T13:43:40;100057.92;;;36.49;14.18
68506;BME280;55509;50.680;17.942;2022-09-01T13:46:42;100054.27;;;36.38;14.37
68506;BME280;55509;50.680;17.942;2022-09-01T13:49:46;100059.22;;;35.83;14.82
68506;BME280;55509;50.680;17.942;2022-09-01T13:52:57;100057.65;;;35.52;15.11
68506;BME280;55509;50.680;17.942;2022-09-01T13:55:59;100061.84;;;35.42;15.83
68506;BME280;55509;50.680;17.942;2022-09-01T13:59:00;100060.08;;;35.50;15.65
68506;BME280;55509;50.680;17.942;2022-09-01T14:02:03;100056.08;;;35.17;15.36
68506;BME280;55509;50.680;17.942;2022-09-01T14:05:08;100056.42;;;34.83;15.46
68506;BME280;55509;50.680;17.942;2022-09-01T14:08:11;100054.25;;;34.70;16.10
68506;BME280;55509;50.680;17.942;2022-09-01T14:11:19;100054.80;;;34.59;15.58
68506;BME280;55509;50.680;17.942;2022-09-01T14:14:21;100052.92;;;34.07;15.55
68506;BME280;55509;50.680;17.942;2022-09-01T14:17:26;100053.92;;;33.48;16.79
68506;BME280;55509;50.680;17.942;2022-09-01T14:20:35;100051.77;;;33.19;17.63
68506;BME280;55509;50.680;17.942;2022-09-01T14:23:43;100055.74;;;32.85;17.65
68506;BME280;55509;50.680;17.942;2022-09-01T14:26:48;100052.07;;;32.57;18.11
68506;BME280;55509;50.680;17.942;2022-09-01T14:29:51;100049.44;;;32.56;18.55
68506;BME280;55509;50.680;17.942;2022-09-01T14:32:59;100049.98;;;32.40;18.09
68506;BME280;55509;50.680;17.942;2022-09-01T14:36:03;100053.65;;;32.45;18.21
68506;BME280;55509;50.680;17.942;2022-09-01T14:39:08;100051.14;;;32.43;17.93
68506;BME280;55509;50.680;17.942;2022-09-01T14:42:10;100050.20;;;32.32;17.97
68506;BME280;55509;50.680;17.942;2022-09-01T14:45:12;100049.28;;;32.17;17.78
68506;BME280;55509;50.680;17.942;2022-09-01T14:48:20;100051.68;;;31.68;18.08
68506;BME280;55509;50.680;17.942;2022-09-01T14:51:24;100052.46;;;31.35;18.55
68506;BME280;55509;50.680;17.942;2022-09-01T14:54:29;100047.19;;;30.84;18.79
68506;BME280;55509;50.680;17.942;2022-09-01T14:57:34;100045.77;;;30.40;19.30
68506;BME280;55509;50.680;17.942;2022-09-01T15:00:35;100042.86;;;30.14;19.54
68506;BME280;55509;50.680;17.942;2022-09-01T15:03:41;100044.57;;;29.71;19.31
68506;BME280;55509;50.680;17.942;2022-09-01T15:06:43;100040.23;;;28.84;20.23
68506;BME280;55509;50.680;17.942;2022-09-01T15:09:44;100042.33;;;28.04;21.04
68506;BME280;55509;50.680;17.942;2022-09-01T15:12:46;100041.64;;;27.48;21.71
68506;BME280;55509;50.680;17.942;2022-09-01T15:15:50;100043.30;;;27.44;22.14
68506;BME280;55509;50.680;17.942;2022-09-01T15:18:53;100042.16;;;27.44;22.41
68506;BME280;55509;50.680;17.942;2022-09-01T15:21:56;100041.16;;;27.35;22.96
68506;BME280;55509;50.680;17.942;2022-09-01T15:24:57;100038.36;;;26.93;23.57
68506;BME280;55509;50.680;17.942;2022-09-01T15:27:59;100041.95;;;26.51;24.21
68506;BME280;55509;50.680;17.942;2022-09-01T15:31:01;100045.50;;;25.93;24.90
68506;BME280;55509;50.680;17.942;2022-09-01T15:34:04;100044.09;;;25.29;25.40
68506;BME280;55509;50.680;17.942;2022-09-01T15:37:09;100042.59;;;24.71;26.27
68506;BME280;55509;50.680;17.942;2022-09-01T15:40:11;100045.42;;;24.31;26.74
68506;BME280;55509;50.680;17.942;2022-09-01T15:43:13;100042.86;;;24.08;27.19
68506;BME280;55509;50.680;17.942;2022-09-01T15:46:23;100052.65;;;23.82;27.58
68506;BME280;55509;50.680;17.942;2022-09-01T15:49:32;100047.60;;;23.59;28.16
68506;BME280;55509;50.680;17.942;2022-09-01T15:52:34;100048.16;;;23.27;28.59
68506;BME280;55509;50.680;17.942;2022-09-01T15:55:48;100047.39;;;23.01;29.07
68506;BME280;55509;50.680;17.942;2022-09-01T15:58:52;100045.39;;;22.84;29.10
68506;BME280;55509;50.680;17.942;2022-09-01T16:01:57;100043.77;;;22.68;29.60
68506;BME280;55509;50.680;17.942;2022-09-01T16:04:59;100045.24;;;22.44;30.10
68506;BME280;55509;50.680;17.942;2022-09-01T16:08:02;100049.34;;;22.29;30.91
68506;BME280;55509;50.680;17.942;2022-09-01T16:11:06;100052.21;;;22.11;30.93
68506;BME280;55509;50.680;17.942;2022-09-01T16:14:22;100059.40;;;22.01;30.35
68506;BME280;55509;50.680;17.942;2022-09-01T16:24:44;100058.35;;;21.53;30.48
68506;BME280;55509;50.680;17.942;2022-09-01T16:27:47;100060.67;;;21.42;30.57
68506;BME280;55509;50.680;17.942;2022-09-01T16:30:51;100061.98;;;21.31;30.91
68506;BME280;55509;50.680;17.942;2022-09-01T16:33:56;100061.91;;;21.16;31.26
68506;BME280;55509;50.680;17.942;2022-09-01T16:43:34;100065.11;;;20.69;32.33
68506;BME280;55509;50.680;17.942;2022-09-01T16:46:45;100068.01;;;20.57;33.03
68506;BME280;55509;50.680;17.942;2022-09-01T16:53:42;100065.85;;;20.31;33.90
68506;BME280;55509;50.680;17.942;2022-09-01T17:00:24;100067.76;;;20.03;34.91
68506;BME280;55509;50.680;17.942;2022-09-01T17:03:39;100073.31;;;19.87;35.32
68506;BME280;55509;50.680;17.942;2022-09-01T17:16:41;100088.94;;;19.31;37.43